Time;durP1;ratioP1;P1;durP2;ratioP2;P2;SDS_P1;SDS_P2;PMS_P1;PMS_P2;Temp;Humidity;BMP_temperature;BMP_pressure;BME280_temperature;BME280_humidity;BME280_pressure;Samples;Min_cycle;Max_cycle;Signal;HPM_P1;HPM_P2
2021/04/11 00:02:24;;;;;;;44.70;25.13;;;;;;;;;;5087427;28;20231;-49
2021/04/11 00:04:50;;;;;;;45.93;28.60;;;;;;;;;;5083722;28;20189;-49
2021/04/11 00:07:16;;;;;;;44.77;31.03;;;;;;;;;;5083003;28;20200;-49
2021/04/11 00:09:41;;;;;;;41.20;25.40;;;;;;;;;;5084847;28;20188;-50
2021/04/11 00:12:07;;;;;;;44.43;30.57;;;;;;;;;;5076594;28;20207;-49
2021/04/11 00:14:32;;;;;;;33.90;20.83;;;;;;;;;;5086046;28;20187;-50
2021/04/11 00:16:57;;;;;;;45.87;30.50;;;;;;;;;;5081343;28;20188;-50
2021/04/11 00:19:22;;;;;;;35.73;22.03;;;;;;;;;;5084931;28;20184;-48
2021/04/11 00:21:48;;;;;;;53.23;28.77;;;;;;;;;;5085475;28;20200;-49
2021/04/11 00:24:13;;;;;;;42.43;26.37;;;;;;;;;;5082011;28;20828;-50
2021/04/11 00:26:38;;;;;;;49.90;31.63;;;;;;;;;;5091587;28;20184;-52
2021/04/11 00:29:05;;;;;;;43.97;27.47;;;;;;;;;;5086155;28;20268;-50
2021/04/11 00:31:30;;;;;;;54.53;34.77;;;;;;;;;;5082395;28;20217;-51
2021/04/11 00:33:55;;;;;;;39.63;23.83;;;;;;;;;;5086062;28;20365;-49
2021/04/11 00:36:20;;;;;;;41.80;25.83;;;;;;;;;;5084809;28;20317;-49
2021/04/11 00:38:46;;;;;;;42.80;25.83;;;;;;;;;;5085208;28;20234;-50
2021/04/11 00:41:15;;;;;;;49.17;29.87;;;;;;;;;;5087361;28;20184;-49
2021/04/11 00:43:40;;;;;;;42.57;26.73;;;;;;;;;;5081244;28;20272;-49
2021/04/11 00:46:05;;;;;;;52.10;30.93;;;;;;;;;;5083347;28;20877;-49
2021/04/11 00:48:31;;;;;;;43.20;27.50;;;;;;;;;;5087083;28;20762;-50
2021/04/11 00:51:04;;;;;;;40.97;25.07;;;;;;;;;;5079105;28;20769;-50
2021/04/11 00:53:30;;;;;;;51.47;32.57;;;;;;;;;;5084866;28;20729;-50
2021/04/11 00:55:55;;;;;;;42.07;24.97;;;;;;;;;;5086413;28;20264;-50
2021/04/11 00:58:21;;;;;;;40.80;25.83;;;;;;;;;;5082549;28;20187;-50
2021/04/11 01:00:47;;;;;;;26.43;17.07;;;;;;;;;;5082399;28;20184;-50
2021/04/11 01:03:23;;;;;;;47.77;28.60;;;;;;;;;;5084480;28;20218;-48
2021/04/11 01:05:48;;;;;;;41.63;25.00;;;;;;;;;;5077674;28;20196;-50
2021/04/11 01:08:15;;;;;;;52.30;33.23;;;;;;;;;;5083506;28;20554;-49
2021/04/11 01:10:53;;;;;;;50.57;31.30;;;;;;;;;;5080457;28;20181;-50
2021/04/11 01:13:19;;;;;;;29.67;17.97;;;;;;;;;;5071555;28;20212;-50
2021/04/11 01:15:45;;;;;;;19.33;12.30;;;;;;;;;;5073954;28;20664;-49
2021/04/11 01:18:10;;;;;;;52.07;31.03;;;;;;;;;;5086721;28;20281;-50
2021/04/11 01:20:35;;;;;;;36.00;20.40;;;;;;;;;;5082604;28;20185;-51
2021/04/11 01:23:19;;;;;;;31.77;18.77;;;;;;;;;;5076254;28;20269;-51
2021/04/11 01:25:45;;;;;;;27.23;18.00;;;;;;;;;;5086577;28;20633;-50
2021/04/11 01:28:14;;;;;;;39.07;25.43;;;;;;;;;;5083028;28;20184;-50
2021/04/11 01:30:41;;;;;;;53.67;34.00;;;;;;;;;;5084016;28;20196;-51
2021/04/11 01:33:07;;;;;;;50.63;32.23;;;;;;;;;;5082654;28;20228;-51
2021/04/11 01:35:33;;;;;;;49.37;29.80;;;;;;;;;;5072367;28;20181;-50
2021/04/11 01:37:58;;;;;;;38.03;24.07;;;;;;;;;;5081205;28;20207;-49
2021/04/11 01:40:39;;;;;;;46.80;26.67;;;;;;;;;;5086750;28;20277;-50
2021/04/11 01:43:05;;;;;;;58.27;36.50;;;;;;;;;;5076201;28;20201;-50
2021/04/11 01:45:32;;;;;;;53.40;30.97;;;;;;;;;;5086206;28;20184;-50
2021/04/11 01:47:59;;;;;;;59.23;38.00;;;;;;;;;;5087963;28;20199;-51
2021/04/11 01:50:24;;;;;;;42.20;27.33;;;;;;;;;;5080500;28;20628;-49
2021/04/11 01:52:49;;;;;;;53.13;30.50;;;;;;;;;;5078266;28;20201;-50
2021/04/11 01:55:15;;;;;;;49.30;30.03;;;;;;;;;;5089254;28;20528;-50
2021/04/11 01:57:40;;;;;;;52.93;35.80;;;;;;;;;;5083021;28;20578;-49
2021/04/11 02:00:05;;;;;;;30.27;19.53;;;;;;;;;;5081638;28;20632;-50
2021/04/11 02:02:31;;;;;;;34.77;20.43;;;;;;;;;;5087306;28;20624;-49
2021/04/11 02:04:56;;;;;;;43.40;25.33;;;;;;;;;;5084395;28;20663;-50
2021/04/11 02:07:22;;;;;;;30.67;19.67;;;;;;;;;;5089868;28;20751;-51
2021/04/11 02:09:47;;;;;;;31.40;19.57;;;;;;;;;;5083038;28;20185;-50
2021/04/11 02:12:13;;;;;;;45.90;29.80;;;;;;;;;;5077629;28;20696;-49
2021/04/11 02:14:40;;;;;;;38.87;24.33;;;;;;;;;;5089134;28;20640;-52
2021/04/11 02:17:06;;;;;;;42.30;24.07;;;;;;;;;;5085022;28;20181;-50
2021/04/11 02:19:31;;;;;;;55.07;34.27;;;;;;;;;;5087831;28;20188;-50
2021/04/11 02:21:59;;;;;;;47.10;29.03;;;;;;;;;;5084387;28;20253;-50
2021/04/11 02:24:24;;;;;;;53.87;33.27;;;;;;;;;;5083902;28;20189;-51
2021/04/11 02:26:49;;;;;;;52.20;34.13;;;;;;;;;;5090255;28;20200;-50
2021/04/11 02:29:16;;;;;;;53.27;35.60;;;;;;;;;;5087983;28;20191;-51
2021/04/11 02:31:42;;;;;;;50.90;31.20;;;;;;;;;;5086753;28;20288;-50
2021/04/11 02:34:10;;;;;;;44.07;29.77;;;;;;;;;;5088412;28;20268;-51
2021/04/11 02:36:43;;;;;;;40.57;24.57;;;;;;;;;;5087813;28;20234;-51
2021/04/11 02:39:15;;;;;;;50.90;31.97;;;;;;;;;;5085500;28;20185;-51
2021/04/11 02:41:40;;;;;;;64.60;37.77;;;;;;;;;;5087434;28;20972;-51
2021/04/11 02:44:06;;;;;;;45.57;27.27;;;;;;;;;;5079917;28;20192;-51
2021/04/11 02:46:32;;;;;;;63.53;40.77;;;;;;;;;;5086757;28;20193;-52
2021/04/11 02:48:58;;;;;;;47.97;28.20;;;;;;;;;;5081248;28;20204;-52
2021/04/11 02:51:24;;;;;;;33.57;19.43;;;;;;;;;;5087185;28;20241;-50
2021/04/11 02:53:50;;;;;;;40.63;24.47;;;;;;;;;;5086588;28;20172;-51
2021/04/11 02:56:16;;;;;;;59.73;38.23;;;;;;;;;;5088051;28;20196;-51
2021/04/11 02:58:41;;;;;;;52.57;32.30;;;;;;;;;;5085216;28;20188;-50
2021/04/11 03:01:17;;;;;;;46.30;28.47;;;;;;;;;;5077679;28;20189;-51
2021/04/11 03:03:42;;;;;;;42.07;26.27;;;;;;;;;;5087359;28;20603;-50
2021/04/11 03:06:12;;;;;;;51.00;31.23;;;;;;;;;;5087722;28;20208;-50
2021/04/11 03:08:38;;;;;;;21.67;15.23;;;;;;;;;;5082689;28;20253;-50
2021/04/11 03:11:13;;;;;;;44.30;28.23;;;;;;;;;;5087321;28;20193;-50
2021/04/11 03:13:38;;;;;;;52.63;34.13;;;;;;;;;;5086724;28;20184;-50
2021/04/11 03:16:04;;;;;;;38.70;25.47;;;;;;;;;;5078920;28;20185;-50
2021/04/11 03:18:29;;;;;;;51.33;32.70;;;;;;;;;;5089107;28;20250;-51
2021/04/11 03:20:56;;;;;;;31.70;19.63;;;;;;;;;;5085123;28;20184;-50
2021/04/11 03:23:21;;;;;;;34.27;21.10;;;;;;;;;;5081353;28;20201;-50
2021/04/11 03:25:50;;;;;;;46.30;29.30;;;;;;;;;;5085931;28;20181;-50
2021/04/11 03:28:18;;;;;;;26.50;18.60;;;;;;;;;;5083094;28;20633;-49
2021/04/11 03:30:46;;;;;;;38.20;23.13;;;;;;;;;;5084616;28;20216;-50
2021/04/11 03:33:13;;;;;;;35.77;24.00;;;;;;;;;;5083854;28;20209;-50
2021/04/11 03:35:40;;;;;;;39.23;14.80;;;;;;;;;;5077558;28;20192;-50
2021/04/11 03:38:07;;;;;;;24.77;16.03;;;;;;;;;;5085535;28;20184;-51
2021/04/11 03:40:34;;;;;;;32.93;19.03;;;;;;;;;;5076660;28;20313;-49
2021/04/11 03:43:02;;;;;;;32.57;19.53;;;;;;;;;;5081534;28;20571;-50
2021/04/11 03:45:29;;;;;;;34.47;20.03;;;;;;;;;;5083770;28;20192;-49
2021/04/11 03:47:57;;;;;;;50.93;32.53;;;;;;;;;;5081691;28;20189;-50
2021/04/11 03:50:24;;;;;;;34.70;21.73;;;;;;;;;;5082998;28;20314;-51
2021/04/11 03:53:01;;;;;;;36.97;20.67;;;;;;;;;;5084247;28;20265;-51
2021/04/11 03:55:29;;;;;;;33.80;20.87;;;;;;;;;;5078869;28;20322;-51
2021/04/11 03:57:56;;;;;;;40.73;23.57;;;;;;;;;;5077334;28;20822;-50
2021/04/11 04:00:24;;;;;;;18.43;12.37;;;;;;;;;;5085421;28;20185;-50
2021/04/11 04:02:53;;;;;;;43.83;28.13;;;;;;;;;;5086951;28;20200;-51
2021/04/11 04:05:20;;;;;;;47.50;28.87;;;;;;;;;;5081652;28;20538;-51
2021/04/11 04:07:53;;;;;;;60.70;36.83;;;;;;;;;;5083872;28;20184;-52
2021/04/11 04:10:20;;;;;;;55.63;34.40;;;;;;;;;;5084879;28;20553;-51
2021/04/11 04:12:51;;;;;;;27.60;17.13;;;;;;;;;;5083568;28;20810;-51
2021/04/11 04:15:19;;;;;;;24.97;18.97;;;;;;;;;;5084497;28;20219;-50
2021/04/11 04:18:03;;;;;;;33.63;19.47;;;;;;;;;;5084913;28;20258;-51
2021/04/11 04:20:28;;;;;;;46.60;26.40;;;;;;;;;;5080582;28;20178;-51
2021/04/11 04:23:20;;;;;;;29.75;14.50;;;;;;;;;;5082183;28;20620;-49
2021/04/11 04:25:57;;;;;;;30.00;21.23;;;;;;;;;;5048702;28;20898;-51
2021/04/11 04:28:42;;;;;;;27.87;13.53;;;;;;;;;;5086233;28;20245;-51
2021/04/11 04:31:26;;;;;;;29.33;20.37;;;;;;;;;;5080552;28;20193;-52
2021/04/11 04:33:57;;;;;;;43.37;26.07;;;;;;;;;;5083861;28;20660;-52
2021/04/11 04:36:37;;;;;;;57.77;35.97;;;;;;;;;;5083069;28;20177;-53
2021/04/11 04:39:21;;;;;;;40.20;24.27;;;;;;;;;;5082121;28;20205;-52
2021/04/11 04:41:51;;;;;;;39.53;25.70;;;;;;;;;;5074600;28;20235;-52
2021/04/11 04:44:19;;;;;;;45.10;28.67;;;;;;;;;;5082958;28;20674;-53
2021/04/11 04:46:52;;;;;;;50.53;31.10;;;;;;;;;;5086227;28;20176;-51
2021/04/11 04:49:25;;;;;;;41.77;23.60;;;;;;;;;;5081316;28;20192;-51
2021/04/11 04:51:58;;;;;;;40.80;27.13;;;;;;;;;;5085423;28;20208;-51
2021/04/11 04:54:23;;;;;;;38.90;20.87;;;;;;;;;;5082711;28;20680;-51
2021/04/11 04:56:53;;;;;;;40.50;26.07;;;;;;;;;;5081805;28;20209;-51
2021/04/11 04:59:21;;;;;;;42.93;26.23;;;;;;;;;;5080018;28;20203;-51
2021/04/11 05:01:50;;;;;;;32.33;21.60;;;;;;;;;;5080999;28;20216;-53
2021/04/11 05:04:18;;;;;;;13.00;8.80;;;;;;;;;;5084230;28;20180;-52
2021/04/11 05:06:44;;;;;;;24.93;16.33;;;;;;;;;;5078480;28;20283;-51
2021/04/11 05:09:15;;;;;;;23.60;14.73;;;;;;;;;;5083170;28;20267;-50
2021/04/11 05:11:43;;;;;;;28.60;16.80;;;;;;;;;;5084946;28;20211;-50
2021/04/11 05:14:10;;;;;;;18.00;12.00;;;;;;;;;;5090225;28;20181;-51
2021/04/11 05:16:38;;;;;;;31.27;21.60;;;;;;;;;;5081163;28;20215;-51
2021/04/11 05:19:13;;;;;;;33.33;22.77;;;;;;;;;;5085556;28;20180;-52
2021/04/11 05:21:44;;;;;;;26.67;18.80;;;;;;;;;;5089804;28;20199;-51
2021/04/11 05:24:09;;;;;;;35.80;22.13;;;;;;;;;;5088478;28;20204;-51
2021/04/11 05:26:40;;;;;;;24.40;15.03;;;;;;;;;;5088997;28;20186;-51
2021/04/11 05:29:09;;;;;;;16.63;12.30;;;;;;;;;;5087197;28;20180;-51
2021/04/11 05:31:34;;;;;;;20.90;12.03;;;;;;;;;;5081310;28;20279;-51
2021/04/11 05:34:00;;;;;;;20.90;12.40;;;;;;;;;;5086552;28;20272;-51
2021/04/11 05:36:44;;;;;;;25.23;15.67;;;;;;;;;;5082603;28;20185;-50
2021/04/11 05:39:28;;;;;;;28.30;16.60;;;;;;;;;;5082387;28;20178;-52
2021/04/11 05:42:06;;;;;;;21.83;15.13;;;;;;;;;;5081160;28;20222;-51
2021/04/11 05:44:37;;;;;;;26.70;15.47;;;;;;;;;;5075072;28;20241;-52
2021/04/11 05:47:09;;;;;;;44.70;27.93;;;;;;;;;;5085660;28;20656;-50
2021/04/11 05:49:37;;;;;;;42.47;29.23;;;;;;;;;;5089223;28;20195;-52
2021/04/11 05:52:06;;;;;;;31.03;20.67;;;;;;;;;;5084118;28;20212;-51
2021/04/11 05:54:34;;;;;;;43.60;31.13;;;;;;;;;;5084586;28;20173;-51
2021/04/11 05:57:00;;;;;;;43.93;30.73;;;;;;;;;;5086077;28;20728;-51
2021/04/11 05:59:41;;;;;;;36.50;26.20;;;;;;;;;;5084201;28;20187;-51
2021/04/11 06:02:08;;;;;;;38.60;25.60;;;;;;;;;;5083875;28;20300;-52
2021/04/11 06:04:41;;;;;;;40.70;25.60;;;;;;;;;;5083528;28;20177;-50
2021/04/11 06:07:11;;;;;;;42.20;29.23;;;;;;;;;;5085912;28;20189;-50
2021/04/11 06:09:37;;;;;;;35.87;24.83;;;;;;;;;;5085698;28;20180;-50
2021/04/11 06:12:04;;;;;;;37.20;27.80;;;;;;;;;;5081456;28;20215;-51
2021/04/11 06:14:48;;;;;;;31.53;19.93;;;;;;;;;;5085894;28;20206;-51
2021/04/11 06:17:13;;;;;;;35.57;26.43;;;;;;;;;;5080305;28;20275;-51
2021/04/11 06:19:43;;;;;;;36.63;26.20;;;;;;;;;;5081123;28;20260;-51
2021/04/11 06:22:14;;;;;;;35.53;27.17;;;;;;;;;;5088681;28;20208;-51
2021/04/11 06:24:58;;;;;;;33.73;24.17;;;;;;;;;;5085268;28;20675;-50
2021/04/11 06:27:24;;;;;;;35.10;26.87;;;;;;;;;;5083266;28;20196;-51
2021/04/11 06:29:49;;;;;;;33.53;23.98;;;;;;;;;;5086197;28;20181;-51
2021/04/11 06:32:14;;;;;;;29.63;22.90;;;;;;;;;;5083569;28;20270;-51
2021/04/11 06:34:43;;;;;;;31.50;22.43;;;;;;;;;;5078688;28;20177;-50
2021/04/11 06:37:09;;;;;;;29.87;23.67;;;;;;;;;;5082601;28;20522;-52
2021/04/11 06:39:38;;;;;;;30.43;23.73;;;;;;;;;;5078860;28;20174;-51
2021/04/11 06:42:03;;;;;;;31.53;22.13;;;;;;;;;;5081476;28;20287;-54
2021/04/11 06:44:46;;;;;;;26.73;19.10;;;;;;;;;;5075616;28;20921;-49
2021/04/11 06:47:28;;;;;;;26.50;20.80;;;;;;;;;;5076061;28;20221;-50
2021/04/11 06:51:48;;;;;;;24.10;19.47;;;;;;;;;;5081741;27;20564;-51
2021/04/11 06:54:45;;;;;;;23.07;18.53;;;;;;;;;;5061144;28;20830;-51
2021/04/11 06:57:36;;;;;;;18.67;14.07;;;;;;;;;;5059534;28;20193;-51
2021/04/11 07:00:10;;;;;;;8.27;6.73;;;;;;;;;;5060791;28;20189;-50
2021/04/11 07:03:00;;;;;;;16.03;12.53;;;;;;;;;;5060458;28;20216;-51
2021/04/11 07:05:48;;;;;;;12.53;7.90;;;;;;;;;;5063008;28;20292;-53
2021/04/11 07:08:43;;;;;;;11.13;7.07;;;;;;;;;;5060706;28;20673;-51
2021/04/11 07:11:42;;;;;;;13.30;8.93;;;;;;;;;;5061092;28;20849;-51
2021/04/11 07:14:26;;;;;;;10.83;8.20;;;;;;;;;;5060565;28;20301;-50
2021/04/11 07:17:16;;;;;;;15.93;12.63;;;;;;;;;;5061920;28;20374;-51
2021/04/11 07:19:41;;;;;;;12.40;7.13;;;;;;;;;;5060319;28;20181;-51
2021/04/11 07:22:28;;;;;;;5.73;4.30;;;;;;;;;;5057080;28;20731;-50
2021/04/11 07:25:31;;;;;;;13.30;10.47;;;;;;;;;;5049710;28;20223;-51
2021/04/11 07:28:23;;;;;;;9.03;6.63;;;;;;;;;;5056424;28;20265;-50
2021/04/11 07:31:08;;;;;;;14.60;10.63;;;;;;;;;;5053020;28;20247;-51
2021/04/11 07:33:52;;;;;;;12.37;8.50;;;;;;;;;;5058762;28;20300;-51
2021/04/11 07:36:42;;;;;;;11.30;8.40;;;;;;;;;;5063445;28;20282;-51
2021/04/11 07:39:22;;;;;;;10.93;8.83;;;;;;;;;;5062439;28;20886;-53
2021/04/11 07:42:07;;;;;;;7.00;5.23;;;;;;;;;;5061922;28;20225;-51
2021/04/11 07:44:38;;;;;;;8.60;6.77;;;;;;;;;;5060457;28;20192;-50
2021/04/11 07:47:12;;;;;;;8.87;6.03;;;;;;;;;;5062514;28;20300;-51
2021/04/11 07:50:04;;;;;;;8.00;6.47;;;;;;;;;;5075918;28;20215;-51
2021/04/11 07:52:54;;;;;;;8.13;5.13;;;;;;;;;;5060671;28;20226;-55
2021/04/11 07:55:25;;;;;;;11.17;8.37;;;;;;;;;;5061122;28;20193;-51
2021/04/11 07:58:09;;;;;;;6.90;5.23;;;;;;;;;;5061581;28;20201;-50
2021/04/11 08:00:55;;;;;;;9.37;6.60;;;;;;;;;;5054808;28;20535;-53
2021/04/11 08:03:26;;;;;;;9.77;7.23;;;;;;;;;;5048872;28;20308;-52
2021/04/11 08:06:34;;;;;;;11.90;8.27;;;;;;;;;;5051688;28;20678;-50
2021/04/11 08:09:39;;;;;;;14.40;7.47;;;;;;;;;;5049023;28;20186;-51
2021/04/11 08:12:41;;;;;;;13.90;9.03;;;;;;;;;;4972334;28;20233;-52
2021/04/11 08:15:33;;;;;;;6.57;4.63;;;;;;;;;;5048257;28;20186;-51
2021/04/11 08:18:37;;;;;;;10.03;7.83;;;;;;;;;;5039179;28;20200;-55
2021/04/11 08:21:24;;;;;;;13.50;9.00;;;;;;;;;;5046025;28;20198;-52
2021/04/11 08:24:12;;;;;;;13.17;8.87;;;;;;;;;;5049336;28;20186;-51
2021/04/11 08:27:01;;;;;;;12.80;8.63;;;;;;;;;;5048197;28;20243;-51
2021/04/11 08:29:42;;;;;;;10.63;8.03;;;;;;;;;;5041877;28;20200;-51
2021/04/11 08:32:33;;;;;;;7.47;6.20;;;;;;;;;;5040053;28;20222;-50
2021/04/11 08:35:43;;;;;;;10.30;6.33;;;;;;;;;;5047620;28;20186;-52
2021/04/11 08:38:25;;;;;;;8.33;5.77;;;;;;;;;;5039484;28;20195;-50
2021/04/11 08:41:12;;;;;;;7.13;5.70;;;;;;;;;;5039074;28;20221;-52
2021/04/11 08:43:53;;;;;;;8.03;6.43;;;;;;;;;;5043332;28;20213;-52
2021/04/11 08:46:47;;;;;;;7.17;6.30;;;;;;;;;;5036707;28;20244;-51
2021/04/11 08:49:23;;;;;;;9.70;6.23;;;;;;;;;;5039584;28;20212;-52
2021/04/11 08:52:24;;;;;;;10.23;7.07;;;;;;;;;;5046522;28;20252;-51
2021/04/11 08:54:56;;;;;;;9.93;7.83;;;;;;;;;;5048549;28;20194;-51
2021/04/11 08:57:49;;;;;;;10.53;8.90;;;;;;;;;;5046972;28;20185;-52
2021/04/11 09:00:18;;;;;;;10.23;8.10;;;;;;;;;;5041287;28;20260;-50
2021/04/11 09:03:03;;;;;;;5.10;3.10;;;;;;;;;;5042571;28;20293;-52
2021/04/11 09:05:31;;;;;;;5.27;3.07;;;;;;;;;;5046995;28;20272;-52
2021/04/11 09:08:15;;;;;;;2.70;2.07;;;;;;;;;;5047640;28;20198;-51
2021/04/11 09:11:11;;;;;;;1.87;1.50;;;;;;;;;;5048637;28;20885;-51
2021/04/11 09:13:59;;;;;;;3.90;2.37;;;;;;;;;;5042414;28;20228;-49
2021/04/11 09:16:42;;;;;;;1.73;1.63;;;;;;;;;;5045131;28;20216;-51
2021/04/11 09:19:33;;;;;;;6.20;2.37;;;;;;;;;;5044410;28;20220;-53
2021/04/11 09:22:13;;;;;;;4.23;2.43;;;;;;;;;;5040130;28;20614;-52
2021/04/11 09:25:10;;;;;;;4.00;2.67;;;;;;;;;;5042110;28;20315;-52
2021/04/11 09:27:44;;;;;;;3.90;2.70;;;;;;;;;;5051088;28;20192;-52
2021/04/11 09:30:23;;;;;;;1.60;1.50;;;;;;;;;;5047344;28;20213;-53
2021/04/11 09:33:08;;;;;;;7.40;2.70;;;;;;;;;;5041896;28;20210;-52
2021/04/11 09:35:45;;;;;;;4.60;3.17;;;;;;;;;;5027065;28;20224;-53
2021/04/11 09:38:31;;;;;;;4.67;3.17;;;;;;;;;;5044230;28;20243;-51
2021/04/11 09:41:33;;;;;;;8.53;2.90;;;;;;;;;;5045287;28;20197;-51
2021/04/11 09:44:01;;;;;;;2.60;1.97;;;;;;;;;;5045139;28;20186;-52
2021/04/11 09:46:56;;;;;;;3.70;2.50;;;;;;;;;;5044762;28;20186;-53
2021/04/11 09:49:36;;;;;;;4.60;2.60;;;;;;;;;;5045404;28;20204;-52
2021/04/11 09:52:20;;;;;;;4.53;3.10;;;;;;;;;;5044249;28;20218;-53
2021/04/11 09:54:55;;;;;;;4.47;2.70;;;;;;;;;;5043327;28;20552;-52
2021/04/11 09:57:45;;;;;;;4.30;3.10;;;;;;;;;;5037379;28;20200;-52
2021/04/11 10:00:22;;;;;;;7.00;2.83;;;;;;;;;;5042473;28;20277;-53
2021/04/11 10:02:48;;;;;;;3.70;3.00;;;;;;;;;;5040897;28;20803;-53
2021/04/11 10:05:24;;;;;;;3.63;2.70;;;;;;;;;;5045166;28;20185;-52
2021/04/11 10:08:07;;;;;;;5.03;3.23;;;;;;;;;;5044856;28;20720;-52
2021/04/11 10:10:54;;;;;;;5.27;3.00;;;;;;;;;;5040952;28;20355;-52
2021/04/11 10:13:46;;;;;;;5.73;3.40;;;;;;;;;;5043275;28;20225;-54
2021/04/11 10:16:34;;;;;;;3.90;2.93;;;;;;;;;;5040488;28;20567;-52
2021/04/11 10:19:17;;;;;;;4.77;3.47;;;;;;;;;;5044803;28;20641;-52
2021/04/11 10:22:01;;;;;;;4.50;3.63;;;;;;;;;;5043666;28;20217;-50
2021/04/11 10:24:59;;;;;;;6.67;3.80;;;;;;;;;;5044337;28;20197;-52
2021/04/11 10:27:36;;;;;;;4.97;3.47;;;;;;;;;;5042927;28;20224;-51
2021/04/11 10:30:05;;;;;;;4.83;3.20;;;;;;;;;;5045259;28;20737;-53
2021/04/11 10:32:56;;;;;;;4.70;3.87;;;;;;;;;;5046572;28;20263;-53
2021/04/11 10:35:31;;;;;;;5.73;4.23;;;;;;;;;;5040154;28;20186;-53
2021/04/11 10:38:02;;;;;;;5.53;3.80;;;;;;;;;;5032012;28;20197;-52
2021/04/11 10:40:54;;;;;;;2.90;2.60;;;;;;;;;;5040215;28;20602;-53
2021/04/11 10:43:28;;;;;;;4.00;3.60;;;;;;;;;;5043472;28;20716;-52
2021/04/11 10:46:03;;;;;;;5.20;3.97;;;;;;;;;;5037242;28;20190;-51
2021/04/11 10:49:06;;;;;;;6.27;3.33;;;;;;;;;;5041972;28;20288;-54
2021/04/11 10:51:40;;;;;;;4.50;3.37;;;;;;;;;;5044787;28;20220;-51
2021/04/11 10:54:28;;;;;;;3.57;3.27;;;;;;;;;;5044236;28;20206;-51
2021/04/11 10:57:04;;;;;;;3.77;2.80;;;;;;;;;;5039151;28;20190;-52
2021/04/11 10:59:54;;;;;;;3.47;3.13;;;;;;;;;;5045714;28;20280;-52
2021/04/11 11:02:43;;;;;;;5.07;3.70;;;;;;;;;;5039994;28;20255;-52
2021/04/11 11:05:27;;;;;;;4.93;4.03;;;;;;;;;;5040539;28;20276;-50
2021/04/11 11:08:29;;;;;;;6.70;3.50;;;;;;;;;;5042580;28;20778;-52
2021/04/11 11:11:20;;;;;;;4.17;3.77;;;;;;;;;;5041673;28;20205;-53
2021/04/11 11:14:03;;;;;;;5.67;4.13;;;;;;;;;;5045554;28;20194;-53
2021/04/11 11:17:05;;;;;;;4.63;3.77;;;;;;;;;;5038301;28;20194;-54
2021/04/11 11:19:39;;;;;;;4.83;4.33;;;;;;;;;;5045630;28;20193;-52
2021/04/11 11:22:27;;;;;;;6.20;4.27;;;;;;;;;;5046607;28;20266;-52
2021/04/11 11:25:17;;;;;;;7.13;5.37;;;;;;;;;;5041567;28;20277;-52
2021/04/11 11:28:19;;;;;;;5.50;5.00;;;;;;;;;;5046511;28;20255;-52
2021/04/11 11:31:12;;;;;;;5.60;5.10;;;;;;;;;;5046604;28;20362;-53
2021/04/11 11:33:57;;;;;;;6.90;5.20;;;;;;;;;;5046038;28;20201;-53
2021/04/11 11:36:34;;;;;;;7.30;5.20;;;;;;;;;;5042280;28;20197;-50
2021/04/11 11:39:34;;;;;;;4.73;4.23;;;;;;;;;;5047177;28;20197;-53
2021/04/11 11:42:44;;;;;;;5.80;4.10;;;;;;;;;;5044289;28;20306;-52
2021/04/11 11:45:34;;;;;;;4.57;3.90;;;;;;;;;;4987166;28;20195;-51
2021/04/11 11:48:20;;;;;;;4.60;4.07;;;;;;;;;;5045361;28;20251;-50
2021/04/11 11:51:04;;;;;;;4.37;3.67;;;;;;;;;;5050011;28;20225;-52
2021/04/11 11:53:36;;;;;;;3.53;3.23;;;;;;;;;;5048575;28;20221;-54
2021/04/11 11:56:12;;;;;;;3.00;2.70;;;;;;;;;;5049844;28;20676;-54
2021/04/11 11:58:46;;;;;;;4.07;3.07;;;;;;;;;;5045416;28;20193;-52
2021/04/11 12:01:28;;;;;;;5.53;2.97;;;;;;;;;;5050743;28;20221;-54
2021/04/11 12:04:12;;;;;;;2.90;2.40;;;;;;;;;;5046611;28;20193;-53
2021/04/11 12:06:48;;;;;;;2.53;2.17;;;;;;;;;;5048711;28;20222;-52
2021/04/11 12:09:47;;;;;;;3.90;2.73;;;;;;;;;;5049930;28;20200;-51
2021/04/11 12:12:26;;;;;;;3.30;2.20;;;;;;;;;;5049619;28;20928;-49
2021/04/11 12:15:11;;;;;;;4.60;2.23;;;;;;;;;;5029402;28;20194;-51
2021/04/11 12:17:53;;;;;;;2.93;2.07;;;;;;;;;;5045332;28;20197;-53
2021/04/11 12:20:34;;;;;;;2.13;1.93;;;;;;;;;;5047162;28;20646;-54
2021/04/11 12:23:12;;;;;;;2.90;2.20;;;;;;;;;;5041900;28;20211;-52
2021/04/11 12:25:38;;;;;;;2.80;2.00;;;;;;;;;;5049576;28;20194;-52
2021/04/11 12:28:23;;;;;;;2.63;2.30;;;;;;;;;;5047790;28;20193;-53
2021/04/11 12:30:49;;;;;;;3.90;2.53;;;;;;;;;;5047326;28;20210;-53
2021/04/11 12:33:27;;;;;;;4.17;2.80;;;;;;;;;;5050585;28;20216;-53
2021/04/11 12:36:01;;;;;;;3.37;2.30;;;;;;;;;;5048145;28;20189;-53
2021/04/11 12:38:38;;;;;;;2.73;2.53;;;;;;;;;;5046914;28;20230;-54
2021/04/11 12:41:12;;;;;;;3.70;3.00;;;;;;;;;;5041447;28;20565;-53
2021/04/11 12:43:53;;;;;;;2.93;2.30;;;;;;;;;;5039519;28;20650;-53
2021/04/11 12:46:32;;;;;;;3.70;2.40;;;;;;;;;;5044538;28;20243;-51
2021/04/11 12:49:06;;;;;;;2.60;2.20;;;;;;;;;;5039087;28;20703;-52
2021/04/11 12:52:02;;;;;;;2.47;2.07;;;;;;;;;;5038883;28;20245;-53
2021/04/11 12:54:35;;;;;;;2.33;2.07;;;;;;;;;;5037433;28;20202;-53
2021/04/11 12:57:17;;;;;;;2.53;2.33;;;;;;;;;;5036049;28;20195;-53
2021/04/11 12:59:57;;;;;;;3.47;2.67;;;;;;;;;;5046040;28;20209;-52
2021/04/11 13:02:39;;;;;;;4.13;3.73;;;;;;;;;;5043205;28;20233;-51
2021/04/11 13:05:27;;;;;;;5.80;5.20;;;;;;;;;;5044969;28;20351;-51
2021/04/11 13:08:01;;;;;;;7.30;5.63;;;;;;;;;;5039651;28;20724;-52
2021/04/11 13:10:30;;;;;;;6.93;6.23;;;;;;;;;;5039339;28;20251;-50
2021/04/11 13:13:20;;;;;;;7.70;6.90;;;;;;;;;;5045398;28;20212;-51
2021/04/11 13:15:52;;;;;;;7.80;7.10;;;;;;;;;;5046303;28;20205;-52
2021/04/11 13:18:43;;;;;;;8.17;7.37;;;;;;;;;;5044772;28;20195;-51
2021/04/11 13:21:14;;;;;;;9.10;7.97;;;;;;;;;;5043217;28;20669;-52
2021/04/11 13:23:47;;;;;;;9.37;8.47;;;;;;;;;;5044589;28;20190;-51
2021/04/11 13:26:20;;;;;;;9.43;8.53;;;;;;;;;;5048273;28;20213;-53
2021/04/11 13:29:14;;;;;;;11.03;9.83;;;;;;;;;;5050872;28;20193;-51
2021/04/11 13:31:53;;;;;;;11.20;9.43;;;;;;;;;;5038324;28;20269;-51
2021/04/11 13:34:28;;;;;;;10.10;9.10;;;;;;;;;;5044328;28;20252;-55
2021/04/11 13:36:55;;;;;;;10.03;9.03;;;;;;;;;;5047404;28;20288;-52
2021/04/11 13:39:33;;;;;;;11.87;10.70;;;;;;;;;;5045571;28;20936;-50
2021/04/11 13:42:11;;;;;;;13.43;12.13;;;;;;;;;;5039552;28;20214;-52
2021/04/11 13:45:08;;;;;;;13.13;10.87;;;;;;;;;;5046207;28;20680;-50
2021/04/11 13:48:01;;;;;;;12.47;10.47;;;;;;;;;;5044033;28;20186;-50
2021/04/11 13:50:53;;;;;;;15.00;11.50;;;;;;;;;;5042551;28;20249;-52
2021/04/11 13:53:44;;;;;;;12.73;11.03;;;;;;;;;;5045486;28;20625;-52
2021/04/11 13:56:25;;;;;;;13.00;11.70;;;;;;;;;;5044887;28;20185;-53
2021/04/11 13:59:06;;;;;;;16.25;14.00;;;;;;;;;;5040335;28;20454;-51
2021/04/11 14:01:42;;;;;;;14.37;11.87;;;;;;;;;;5042855;28;20240;-53
2021/04/11 14:04:42;;;;;;;10.37;9.27;;;;;;;;;;5043976;28;20186;-51
2021/04/11 14:07:13;;;;;;;12.10;10.50;;;;;;;;;;5040039;28;20273;-51
2021/04/11 14:09:47;;;;;;;11.83;9.50;;;;;;;;;;5044062;28;20666;-55
2021/04/11 14:12:18;;;;;;;11.37;9.87;;;;;;;;;;5042696;28;20220;-52
2021/04/11 14:14:54;;;;;;;12.37;10.20;;;;;;;;;;5045014;28;20275;-53
2021/04/11 14:17:29;;;;;;;12.40;9.83;;;;;;;;;;5037737;28;20177;-54
2021/04/11 14:20:06;;;;;;;10.57;9.20;;;;;;;;;;5045720;28;20182;-54
2021/04/11 14:22:43;;;;;;;10.70;9.20;;;;;;;;;;5041672;28;20209;-54
2021/04/11 14:25:13;;;;;;;10.03;8.20;;;;;;;;;;5039461;28;20647;-54
2021/04/11 14:27:56;;;;;;;6.50;5.80;;;;;;;;;;5040805;28;20190;-53
2021/04/11 14:30:55;;;;;;;7.10;5.73;;;;;;;;;;5032155;28;20290;-53
2021/04/11 14:33:28;;;;;;;6.07;4.97;;;;;;;;;;5039472;28;20238;-52
2021/04/11 14:35:56;;;;;;;5.67;4.50;;;;;;;;;;5039090;28;20186;-52
2021/04/11 14:38:33;;;;;;;5.63;5.10;;;;;;;;;;5045508;28;20189;-53
2021/04/11 14:41:02;;;;;;;4.80;4.30;;;;;;;;;;5043091;28;20184;-52
2021/04/11 14:43:45;;;;;;;4.63;3.90;;;;;;;;;;5036308;28;20206;-51
2021/04/11 14:46:13;;;;;;;4.63;4.23;;;;;;;;;;5041488;28;20186;-51
2021/04/11 14:48:40;;;;;;;3.67;3.37;;;;;;;;;;5041828;28;20179;-52
2021/04/11 14:51:43;;;;;;;3.60;3.30;;;;;;;;;;5043574;28;20204;-52
2021/04/11 14:54:14;;;;;;;3.37;3.07;;;;;;;;;;5047381;28;20255;-52
2021/04/11 14:56:50;;;;;;;3.93;2.97;;;;;;;;;;5048003;28;20271;-51
2021/04/11 14:59:27;;;;;;;2.73;2.53;;;;;;;;;;5045672;28;20194;-53
2021/04/11 15:02:26;;;;;;;2.77;2.57;;;;;;;;;;5039295;28;20348;-52
2021/04/11 15:05:16;;;;;;;2.70;2.50;;;;;;;;;;5039884;28;20178;-52
2021/04/11 15:08:03;;;;;;;2.50;2.30;;;;;;;;;;5046328;28;20686;-52
2021/04/11 15:11:06;;;;;;;2.40;2.20;;;;;;;;;;5041823;28;20210;-51
2021/04/11 15:13:37;;;;;;;3.27;2.03;;;;;;;;;;5050529;28;20205;-51
2021/04/11 15:16:16;;;;;;;2.17;1.97;;;;;;;;;;5050415;28;20659;-52
2021/04/11 15:18:57;;;;;;;2.20;2.00;;;;;;;;;;5049451;28;20186;-52
2021/04/11 15:22:01;;;;;;;2.40;2.20;;;;;;;;;;5049721;28;20186;-51
2021/04/11 15:25:04;;;;;;;2.03;1.87;;;;;;;;;;4996205;28;20689;-52
2021/04/11 15:27:42;;;;;;;2.00;1.80;;;;;;;;;;5047412;28;20182;-54